createdAt,value
2022-08-07T00:00:18.749Z,23.54
2022-08-07T00:02:46.911Z,23.47
2022-08-07T00:05:14.123Z,23.32
2022-08-07T00:07:41.739Z,23.43
2022-08-07T00:10:27.116Z,23.41
2022-08-07T00:12:59.790Z,23.35
2022-08-07T00:15:35.988Z,23.26
2022-08-07T00:18:24.043Z,23.25
2022-08-07T00:21:02.034Z,23.22
2022-08-07T00:23:37.688Z,23.17
2022-08-07T00:26:18.532Z,23.12
2022-08-07T00:28:58.195Z,23.16
2022-08-07T00:31:37.452Z,23.14
2022-08-07T00:34:09.437Z,23.09
2022-08-07T00:36:38.621Z,23.00
2022-08-07T00:39:16.127Z,22.92
2022-08-07T00:42:02.351Z,22.92
2022-08-07T00:44:33.877Z,22.97
2022-08-07T00:47:06.370Z,22.90
2022-08-07T00:50:20.271Z,22.97
2022-08-07T00:52:29.903Z,23.11
2022-08-07T00:55:04.616Z,23.10
2022-08-07T00:57:37.735Z,22.98
2022-08-07T01:00:12.175Z,23.11
2022-08-07T01:02:40.555Z,23.19
2022-08-07T01:05:19.438Z,23.09
2022-08-07T01:07:47.417Z,22.97
2022-08-07T01:10:18.311Z,22.98
2022-08-07T01:12:53.368Z,23.09
2022-08-07T01:16:00.603Z,23.04
2022-08-07T01:18:17.625Z,22.95
2022-08-07T01:21:07.345Z,22.96
2022-08-07T01:23:51.579Z,22.94
2022-08-07T01:26:21.098Z,22.91
2022-08-07T01:28:51.678Z,22.86
2022-08-07T01:31:41.609Z,22.85
2022-08-07T01:34:14.491Z,22.91
2022-08-07T01:36:44.471Z,22.99
2022-08-07T01:39:24.401Z,22.78
2022-08-07T01:42:39.442Z,22.60
2022-08-07T01:44:57.656Z,22.53
2022-08-07T01:48:18.115Z,22.46
2022-08-07T01:50:13.197Z,22.36
2022-08-07T01:52:49.643Z,22.35
2022-08-07T01:55:33.410Z,22.30
2022-08-07T01:58:28.981Z,22.20
2022-08-07T02:01:09.308Z,22.18
2022-08-07T02:03:56.748Z,22.05
2022-08-07T02:06:31.294Z,21.92
2022-08-07T02:09:04.649Z,21.87
2022-08-07T02:12:02.848Z,21.72
2022-08-07T02:14:35.903Z,21.91
2022-08-07T02:17:06.170Z,21.93
2022-08-07T02:20:06.801Z,21.83
2022-08-07T02:22:25.830Z,21.81
2022-08-07T02:24:57.757Z,21.69
2022-08-07T02:27:34.239Z,21.61
2022-08-07T02:30:07.141Z,21.62
2022-08-07T02:32:39.678Z,21.72
2022-08-07T02:36:29.245Z,21.78
2022-08-07T02:38:16.297Z,21.69
2022-08-07T02:40:46.527Z,21.75
2022-08-07T02:43:15.744Z,21.70
2022-08-07T02:45:58.416Z,21.60
2022-08-07T02:48:30.411Z,21.64
2022-08-07T02:51:03.503Z,21.64
2022-08-07T02:53:38.487Z,21.61
2022-08-07T02:56:21.046Z,21.51
2022-08-07T02:58:54.292Z,21.58
2022-08-07T03:01:35.978Z,21.54
2022-08-07T03:04:12.791Z,21.59
2022-08-07T03:06:44.788Z,21.62
2022-08-07T03:09:15.019Z,21.64
2022-08-07T03:12:08.128Z,21.66
2022-08-07T03:14:52.277Z,21.71
2022-08-07T03:17:22.112Z,21.82
2022-08-07T03:19:55.331Z,21.91
2022-08-07T03:22:29.562Z,21.94
2022-08-07T03:25:00.377Z,21.86
2022-08-07T03:27:59.383Z,21.92
2022-08-07T03:30:21.819Z,21.99
2022-08-07T03:32:58.588Z,21.95
2022-08-07T03:35:43.509Z,21.92
2022-08-07T03:38:20.822Z,21.82
2022-08-07T03:40:53.867Z,21.81
2022-08-07T03:43:32.434Z,21.79
2022-08-07T03:46:02.965Z,21.79
2022-08-07T03:48:32.305Z,21.74
2022-08-07T03:51:02.410Z,21.77
2022-08-07T03:54:05.694Z,21.64
2022-08-07T03:56:33.145Z,21.57
2022-08-07T03:59:09.918Z,21.44
2022-08-07T04:01:45.580Z,21.57
2022-08-07T04:04:17.831Z,21.67
2022-08-07T04:06:50.918Z,21.67
2022-08-07T04:09:23.377Z,21.68
2022-08-07T04:12:23.603Z,21.61
2022-08-07T04:14:46.163Z,21.77
2022-08-07T04:17:21.084Z,21.76
2022-08-07T04:20:10.507Z,21.55
2022-08-07T04:22:40.722Z,21.65
2022-08-07T04:25:24.041Z,21.78
2022-08-07T04:27:59.438Z,21.66
2022-08-07T04:30:39.285Z,21.59
2022-08-07T04:33:21.026Z,21.60
2022-08-07T04:35:53.271Z,21.64
2022-08-07T04:38:27.237Z,21.74
2022-08-07T04:40:56.827Z,21.84
2022-08-07T04:44:12.056Z,21.86
2022-08-07T04:47:04.717Z,21.91
2022-08-07T04:50:04.008Z,21.98
2022-08-07T04:52:54.098Z,21.90
2022-08-07T04:58:12.970Z,21.93
2022-08-07T04:59:17.519Z,21.89
2022-08-07T05:01:30.429Z,21.97
2022-08-07T05:04:12.465Z,22.13
2022-08-07T05:07:19.853Z,22.14
2022-08-07T05:10:01.050Z,22.26
2022-08-07T05:12:38.464Z,22.23
2022-08-07T05:15:22.979Z,22.04
2022-08-07T05:18:01.607Z,22.06
2022-08-07T05:20:59.276Z,22.05
2022-08-07T05:23:41.486Z,22.15
2022-08-07T05:26:24.952Z,21.99
2022-08-07T05:29:04.136Z,22.07
2022-08-07T05:31:38.759Z,22.22
2022-08-07T05:34:15.653Z,22.36
2022-08-07T05:36:49.207Z,22.25
2022-08-07T05:40:13.596Z,22.33
2022-08-07T05:42:34.539Z,22.50
2022-08-07T05:45:25.751Z,22.60
2022-08-07T05:48:01.346Z,22.95
2022-08-07T05:50:34.458Z,23.08
2022-08-07T05:53:02.907Z,23.19
2022-08-07T05:56:02.781Z,23.29
2022-08-07T05:58:36.178Z,23.34
2022-08-07T06:01:08.481Z,23.12
2022-08-07T06:03:56.279Z,23.37
2022-08-07T06:06:29.747Z,23.42
2022-08-07T06:09:04.701Z,23.32
2022-08-07T06:11:35.808Z,23.55
2022-08-07T06:14:12.653Z,23.43
2022-08-07T06:16:55.966Z,23.32
2022-08-07T06:19:48.048Z,23.26
2022-08-07T06:22:23.056Z,23.31
2022-08-07T06:25:01.245Z,23.52
2022-08-07T06:28:00.154Z,23.48
2022-08-07T06:30:24.206Z,23.66
2022-08-07T06:33:09.941Z,23.87
2022-08-07T06:36:06.244Z,23.62
2022-08-07T06:38:33.296Z,23.30
2022-08-07T06:41:09.716Z,23.47
2022-08-07T06:43:46.628Z,23.55
2022-08-07T06:46:31.348Z,23.59
2022-08-07T06:49:04.030Z,23.67
2022-08-07T06:51:36.295Z,23.87
2022-08-07T06:55:32.195Z,23.89
2022-08-07T06:57:09.767Z,23.80
2022-08-07T07:00:14.489Z,23.87
2022-08-07T07:02:48.581Z,24.08
2022-08-07T07:06:05.488Z,24.20
2022-08-07T07:08:12.282Z,24.29
2022-08-07T07:10:47.549Z,24.04
2022-08-07T07:13:43.698Z,23.95
2022-08-07T07:16:31.508Z,23.99
2022-08-07T07:19:54.398Z,24.08
2022-08-07T07:22:04.983Z,24.07
2022-08-07T07:24:42.951Z,24.09
2022-08-07T07:27:17.277Z,24.28
2022-08-07T07:30:07.495Z,24.41
2022-08-07T07:32:40.643Z,24.71
2022-08-07T07:35:12.494Z,25.04
2022-08-07T07:37:49.652Z,25.25
2022-08-07T07:40:26.131Z,25.10
2022-08-07T07:42:55.874Z,25.13
2022-08-07T07:46:39.829Z,25.19
2022-08-07T07:48:24.337Z,24.85
2022-08-07T07:51:07.996Z,24.77
2022-08-07T07:53:50.404Z,24.86
2022-08-07T07:56:30.421Z,25.19
2022-08-07T07:59:03.098Z,25.07
2022-08-07T08:02:02.128Z,25.19
2022-08-07T08:04:25.791Z,25.16
2022-08-07T08:06:55.480Z,25.06
2022-08-07T08:09:29.528Z,24.76
2022-08-07T08:12:01.928Z,24.50
2022-08-07T08:14:36.627Z,24.23
2022-08-07T08:17:55.599Z,24.39
2022-08-07T08:20:17.328Z,24.22
2022-08-07T08:23:10.196Z,24.13
2022-08-07T08:26:03.344Z,23.87
2022-08-07T08:28:43.610Z,23.85
2022-08-07T08:31:22.814Z,24.06
2022-08-07T08:33:59.262Z,24.13
2022-08-07T08:36:32.368Z,24.36
2022-08-07T08:39:02.969Z,24.27
2022-08-07T08:41:57.091Z,24.18
2022-08-07T08:45:12.987Z,23.85
2022-08-07T08:48:03.588Z,24.01
2022-08-07T08:50:39.573Z,24.23
2022-08-07T08:53:47.659Z,24.05
2022-08-07T08:56:24.846Z,23.82
2022-08-07T08:59:16.296Z,23.69
2022-08-07T09:02:02.292Z,23.62
2022-08-07T09:04:54.523Z,23.73
2022-08-07T09:07:25.358Z,23.66
2022-08-07T09:10:03.227Z,23.71
2022-08-07T09:12:32.183Z,23.89
2022-08-07T09:16:25.606Z,24.05
2022-08-07T09:18:41.759Z,24.08
2022-08-07T09:21:57.600Z,24.15
2022-08-07T09:25:00.344Z,24.03
2022-08-07T09:27:59.530Z,24.14
2022-08-07T09:30:46.366Z,24.49
2022-08-07T09:33:56.968Z,24.62
2022-08-07T09:36:36.891Z,24.65
2022-08-07T09:39:53.000Z,24.75
2022-08-07T09:42:57.196Z,24.49
2022-08-07T09:47:52.419Z,24.51
2022-08-07T09:49:59.461Z,24.65
2022-08-07T09:52:15.801Z,24.71
2022-08-07T09:54:58.222Z,24.80
2022-08-07T09:57:59.530Z,25.01
2022-08-07T10:00:32.918Z,24.91
2022-08-07T10:04:07.240Z,25.07
2022-08-07T10:06:49.051Z,25.49
2022-08-07T10:09:42.802Z,25.59
2022-08-07T10:12:59.876Z,25.70
2022-08-07T10:15:44.963Z,25.64
2022-08-07T10:18:27.120Z,25.62
2022-08-07T10:22:12.555Z,25.75
2022-08-07T10:24:27.062Z,25.78
2022-08-07T10:27:19.569Z,25.94
2022-08-07T10:30:12.024Z,26.17
2022-08-07T10:32:52.464Z,26.36
2022-08-07T10:35:56.601Z,26.35
2022-08-07T10:38:48.448Z,26.51
2022-08-07T10:41:53.131Z,26.33
2022-08-07T10:44:38.273Z,26.32
2022-08-07T10:47:26.815Z,26.81
2022-08-07T10:50:12.904Z,27.18
2022-08-07T10:52:53.696Z,27.23
2022-08-07T10:55:38.068Z,27.38
2022-08-07T10:58:40.476Z,27.06
2022-08-07T11:01:35.801Z,27.02
2022-08-07T11:04:40.747Z,26.92
2022-08-07T11:07:56.962Z,27.02
2022-08-07T11:10:28.523Z,27.02
2022-08-07T11:13:04.623Z,27.30
2022-08-07T11:15:38.605Z,27.43
2022-08-07T11:18:36.056Z,27.38
2022-08-07T11:21:11.402Z,27.13
2022-08-07T11:23:48.463Z,27.01
2022-08-07T11:26:48.325Z,27.15
2022-08-07T11:29:41.883Z,27.08
2022-08-07T11:32:25.533Z,27.08
2022-08-07T11:35:07.097Z,27.04
2022-08-07T11:37:58.088Z,26.78
2022-08-07T11:40:59.681Z,26.64
2022-08-07T11:43:54.327Z,26.56
2022-08-07T11:46:28.763Z,26.46
2022-08-07T11:49:50.315Z,26.54
2022-08-07T11:52:19.726Z,26.43
2022-08-07T11:56:12.012Z,26.38
2022-08-07T11:59:00.711Z,26.39
2022-08-07T12:02:20.600Z,26.50
2022-08-07T12:05:09.073Z,26.65
2022-08-07T12:08:25.852Z,26.84
2022-08-07T12:11:24.049Z,26.92
2022-08-07T12:14:22.077Z,27.04
2022-08-07T12:16:58.445Z,27.02
2022-08-07T12:20:02.520Z,26.55
2022-08-07T12:22:47.262Z,26.76
2022-08-07T12:26:05.400Z,26.89
2022-08-07T12:28:55.133Z,26.83
2022-08-07T12:31:53.042Z,27.21
2022-08-07T12:34:32.043Z,27.31
2022-08-07T12:37:00.009Z,27.07
2022-08-07T12:39:44.409Z,27.10
2022-08-07T12:42:27.870Z,27.19
2022-08-07T12:44:59.231Z,27.06
2022-08-07T12:47:33.560Z,27.36
2022-08-07T12:50:40.356Z,27.07
2022-08-07T12:54:02.926Z,27.09
2022-08-07T12:56:51.115Z,27.24
2022-08-07T12:59:33.376Z,27.76
2022-08-07T13:02:42.524Z,28.20
2022-08-07T13:06:03.333Z,28.49
2022-08-07T13:08:51.883Z,28.68
2022-08-07T13:12:02.986Z,28.45
2022-08-07T13:14:55.319Z,28.77
2022-08-07T13:17:57.796Z,28.90
2022-08-07T13:20:46.827Z,29.13
2022-08-07T13:24:01.117Z,29.04
2022-08-07T13:26:19.984Z,28.90
2022-08-07T13:29:03.884Z,28.73
2022-08-07T13:31:55.099Z,28.80
2022-08-07T13:34:44.852Z,29.01
2022-08-07T13:37:34.050Z,28.87
2022-08-07T13:40:35.230Z,28.65
2022-08-07T13:42:58.553Z,28.35
2022-08-07T13:46:21.529Z,28.46
2022-08-07T13:48:27.714Z,28.18
2022-08-07T13:51:27.206Z,28.07
2022-08-07T13:54:03.700Z,28.12
2022-08-07T13:56:36.342Z,28.04
2022-08-07T13:59:24.700Z,27.84
2022-08-07T14:02:12.735Z,27.84
2022-08-07T14:04:54.654Z,28.02
2022-08-07T14:07:30.605Z,27.87
2022-08-07T14:10:15.020Z,27.73
2022-08-07T14:12:57.645Z,27.86
2022-08-07T14:15:42.937Z,27.75
2022-08-07T14:18:30.614Z,27.83
2022-08-07T14:22:03.054Z,27.74
2022-08-07T14:24:33.639Z,28.00
2022-08-07T14:28:09.921Z,27.89
2022-08-07T14:30:06.503Z,27.83
2022-08-07T14:32:54.776Z,27.90
2022-08-07T14:35:45.760Z,27.92
2022-08-07T14:38:26.839Z,27.84
2022-08-07T14:41:06.337Z,27.79
2022-08-07T14:43:55.355Z,27.84
2022-08-07T14:46:31.218Z,27.72
2022-08-07T14:52:05.048Z,27.88
2022-08-07T14:54:41.980Z,28.18
2022-08-07T15:00:06.758Z,28.10
2022-08-07T15:02:39.077Z,28.18
2022-08-07T15:05:20.482Z,28.12
2022-08-07T15:07:52.614Z,28.22
2022-08-07T15:10:26.138Z,28.16
2022-08-07T15:13:05.726Z,28.05
2022-08-07T15:15:43.339Z,27.72
2022-08-07T15:18:35.797Z,27.41
2022-08-07T15:21:44.164Z,27.48
2022-08-07T15:25:16.312Z,27.71
2022-08-07T15:27:06.289Z,27.56
2022-08-07T15:30:10.283Z,27.28
2022-08-07T15:32:39.570Z,27.39
2022-08-07T15:36:01.743Z,27.59
2022-08-07T15:38:29.879Z,27.64
2022-08-07T15:41:23.488Z,27.48
2022-08-07T15:44:07.047Z,27.11
2022-08-07T15:50:04.006Z,27.10
2022-08-07T15:52:29.574Z,27.09
2022-08-07T15:55:02.867Z,27.17
2022-08-07T15:57:47.644Z,27.38
2022-08-07T16:00:31.029Z,27.44
2022-08-07T16:03:06.220Z,27.44
2022-08-07T16:05:38.558Z,27.53
2022-08-07T16:08:32.210Z,27.57
2022-08-07T16:11:25.431Z,27.50
2022-08-07T16:14:02.709Z,27.55
2022-08-07T16:16:49.413Z,27.57
2022-08-07T16:19:59.035Z,27.62
2022-08-07T16:22:37.783Z,27.41
2022-08-07T16:25:54.019Z,27.23
2022-08-07T16:30:07.484Z,27.09
2022-08-07T16:31:57.773Z,27.22
2022-08-07T16:34:52.492Z,27.32
2022-08-07T16:38:04.282Z,27.27
2022-08-07T16:40:51.129Z,27.08
2022-08-07T16:44:08.627Z,27.03
2022-08-07T16:47:16.754Z,26.98
2022-08-07T16:50:20.855Z,27.04
2022-08-07T16:52:52.379Z,26.97
2022-08-07T16:55:47.119Z,27.02
2022-08-07T16:58:22.513Z,26.97
2022-08-07T17:01:07.823Z,27.03
2022-08-07T17:03:59.864Z,27.02
2022-08-07T17:06:57.913Z,26.99
2022-08-07T17:10:06.724Z,26.94
2022-08-07T17:12:35.662Z,27.02
2022-08-07T17:15:15.474Z,26.88
2022-08-07T17:17:47.479Z,26.93
2022-08-07T17:20:22.154Z,27.09
2022-08-07T17:23:15.047Z,26.93
2022-08-07T17:26:23.543Z,26.87
2022-08-07T17:30:14.245Z,26.85
2022-08-07T17:32:31.410Z,26.82
2022-08-07T17:35:49.743Z,26.88
2022-08-07T17:38:33.164Z,26.92
2022-08-07T17:42:02.225Z,26.88
2022-08-07T17:44:33.241Z,26.91
2022-08-07T17:47:08.662Z,26.97
2022-08-07T17:50:02.090Z,26.91
2022-08-07T17:52:52.742Z,26.88
2022-08-07T17:56:01.304Z,26.87
2022-08-07T17:58:50.291Z,26.92
2022-08-07T18:01:37.212Z,26.87
2022-08-07T18:04:45.597Z,26.85
2022-08-07T18:07:34.252Z,26.87
2022-08-07T18:10:32.132Z,26.77
2022-08-07T18:13:01.274Z,26.80
2022-08-07T18:15:37.181Z,26.76
2022-08-07T18:18:46.459Z,26.75
2022-08-07T18:21:42.332Z,26.76
2022-08-07T18:24:33.104Z,26.80
2022-08-07T18:27:39.169Z,26.75
2022-08-07T18:30:32.809Z,26.60
2022-08-07T18:33:31.407Z,26.59
2022-08-07T18:35:58.454Z,26.58
2022-08-07T18:38:56.910Z,26.58
2022-08-07T18:42:01.722Z,26.60
2022-08-07T18:45:43.783Z,26.44
2022-08-07T18:48:08.432Z,26.40
2022-08-07T18:50:58.072Z,26.43
2022-08-07T18:54:03.277Z,26.40
2022-08-07T18:56:58.257Z,26.35
2022-08-07T18:59:59.126Z,26.42
2022-08-07T19:02:42.343Z,26.37
2022-08-07T19:06:02.051Z,26.35
2022-08-07T19:08:46.383Z,26.33
2022-08-07T19:11:36.533Z,26.47
2022-08-07T19:14:20.252Z,26.52
2022-08-07T19:17:04.845Z,26.51
2022-08-07T19:19:59.008Z,26.61
2022-08-07T19:22:30.821Z,26.66
2022-08-07T19:25:06.720Z,26.66
2022-08-07T19:28:58.190Z,26.64
2022-08-07T19:31:00.302Z,26.56
2022-08-07T19:33:33.302Z,26.54
2022-08-07T19:36:04.335Z,26.56
2022-08-07T19:38:53.001Z,26.53
2022-08-07T19:41:39.150Z,26.57
2022-08-07T19:44:22.101Z,26.57
2022-08-07T19:46:57.675Z,26.52
2022-08-07T19:49:57.114Z,26.42
2022-08-07T19:52:19.723Z,26.44
2022-08-07T19:54:56.631Z,26.37
2022-08-07T19:58:00.291Z,26.40
2022-08-07T20:00:29.238Z,26.35
2022-08-07T20:03:35.687Z,26.23
2022-08-07T20:06:03.271Z,26.33
2022-08-07T20:08:34.621Z,26.32
2022-08-07T20:11:10.265Z,26.30
2022-08-07T20:13:53.167Z,26.22
2022-08-07T20:16:34.788Z,26.19
2022-08-07T20:19:10.365Z,26.16
2022-08-07T20:21:48.091Z,26.03
2022-08-07T20:24:23.269Z,26.06
2022-08-07T20:26:54.850Z,25.97
2022-08-07T20:29:49.551Z,25.98
2022-08-07T20:32:25.789Z,25.91
2022-08-07T20:34:57.805Z,25.91
2022-08-07T20:37:55.361Z,25.93
2022-08-07T20:40:33.480Z,25.91
2022-08-07T20:43:09.567Z,25.91
2022-08-07T20:46:27.635Z,25.88
2022-08-07T20:48:35.005Z,25.95
2022-08-07T20:51:09.805Z,25.99
2022-08-07T20:54:03.140Z,25.92
2022-08-07T20:56:32.286Z,26.08
2022-08-07T20:59:05.068Z,25.96
2022-08-07T21:01:45.368Z,25.94
2022-08-07T21:04:22.755Z,25.94
2022-08-07T21:06:55.386Z,25.95
2022-08-07T21:09:51.519Z,25.95
2022-08-07T21:12:26.112Z,25.99
2022-08-07T21:14:58.872Z,25.88
2022-08-07T21:18:03.233Z,25.87
2022-08-07T21:20:26.600Z,25.96
2022-08-07T21:22:59.419Z,25.80
2022-08-07T21:25:56.808Z,25.80
2022-08-07T21:28:50.336Z,25.76
2022-08-07T21:31:49.933Z,25.79
2022-08-07T21:34:46.018Z,25.73
2022-08-07T21:37:57.206Z,25.68
2022-08-07T21:40:52.449Z,25.60
2022-08-07T21:43:47.167Z,25.65
2022-08-07T21:46:42.748Z,25.74
2022-08-07T21:49:26.931Z,25.73
2022-08-07T21:52:09.091Z,25.81
2022-08-07T21:55:27.738Z,25.63
2022-08-07T21:58:22.143Z,25.59
2022-08-07T22:01:03.238Z,25.72
2022-08-07T22:04:02.555Z,25.73
2022-08-07T22:06:37.256Z,25.65
2022-08-07T22:09:13.948Z,25.66
2022-08-07T22:11:53.306Z,25.58
2022-08-07T22:14:59.483Z,25.65
2022-08-07T22:17:36.225Z,25.69
2022-08-07T22:20:33.813Z,25.65
2022-08-07T22:23:21.623Z,25.66
2022-08-07T22:26:23.535Z,25.60
2022-08-07T22:29:38.114Z,25.46
2022-08-07T22:32:35.465Z,25.41
2022-08-07T22:35:05.046Z,25.48
2022-08-07T22:38:06.595Z,25.52
2022-08-07T22:40:43.315Z,25.37
2022-08-07T22:43:14.626Z,25.33
2022-08-07T22:46:21.519Z,25.26
2022-08-07T22:49:16.497Z,25.28
2022-08-07T22:52:02.492Z,25.27
2022-08-07T22:55:17.020Z,25.33
2022-08-07T22:57:50.818Z,25.31
2022-08-07T23:00:32.513Z,25.22
2022-08-07T23:03:21.321Z,25.19
2022-08-07T23:06:16.636Z,25.20
2022-08-07T23:10:04.866Z,25.19
2022-08-07T23:12:00.647Z,25.08
2022-08-07T23:14:33.568Z,25.17
2022-08-07T23:17:23.942Z,25.17
2022-08-07T23:20:52.406Z,25.23
2022-08-07T23:24:05.176Z,25.27
2022-08-07T23:26:54.964Z,25.19
2022-08-07T23:30:37.465Z,25.18
2022-08-07T23:34:34.907Z,25.15
2022-08-07T23:36:10.722Z,25.20
2022-08-07T23:38:54.653Z,25.19
2022-08-07T23:41:47.717Z,25.24
2022-08-07T23:44:45.634Z,25.08
2022-08-07T23:48:02.660Z,25.13
2022-08-07T23:50:33.502Z,25.12
2022-08-07T23:53:22.903Z,25.17
2022-08-07T23:56:31.312Z,25.18
